sensor_id;sensor_type;location;lat;lon;timestamp;P1;durP1;ratioP1;P2;durP2;ratioP2
44165;SDS011;30476;53.468;9.826;2023-03-31T00:01:59;6.70;;;1.97;;
44165;SDS011;30476;53.468;9.826;2023-03-31T00:04:26;7.47;;;2.90;;
44165;SDS011;30476;53.468;9.826;2023-03-31T00:06:52;8.20;;;2.63;;
44165;SDS011;30476;53.468;9.826;2023-03-31T00:09:19;8.13;;;2.60;;
44165;SDS011;30476;53.468;9.826;2023-03-31T00:11:46;11.87;;;2.37;;
44165;SDS011;30476;53.468;9.826;2023-03-31T00:14:17;9.83;;;2.60;;
44165;SDS011;30476;53.468;9.826;2023-03-31T00:16:44;6.70;;;2.17;;
44165;SDS011;30476;53.468;9.826;2023-03-31T00:19:11;8.57;;;2.47;;
44165;SDS011;30476;53.468;9.826;2023-03-31T00:21:46;9.90;;;2.30;;
44165;SDS011;30476;53.468;9.826;2023-03-31T00:24:13;7.60;;;2.23;;
44165;SDS011;30476;53.468;9.826;2023-03-31T00:26:40;6.60;;;2.50;;
44165;SDS011;30476;53.468;9.826;2023-03-31T00:29:06;7.97;;;3.17;;
44165;SDS011;30476;53.468;9.826;2023-03-31T00:31:34;8.00;;;1.83;;
44165;SDS011;30476;53.468;9.826;2023-03-31T00:34:00;8.07;;;2.30;;
44165;SDS011;30476;53.468;9.826;2023-03-31T00:36:26;10.70;;;2.77;;
44165;SDS011;30476;53.468;9.826;2023-03-31T00:38:59;11.90;;;4.17;;
44165;SDS011;30476;53.468;9.826;2023-03-31T00:41:27;6.83;;;2.07;;
44165;SDS011;30476;53.468;9.826;2023-03-31T00:44:00;9.83;;;2.80;;
44165;SDS011;30476;53.468;9.826;2023-03-31T00:49:18;7.30;;;2.17;;
44165;SDS011;30476;53.468;9.826;2023-03-31T00:51:53;10.83;;;2.03;;
44165;SDS011;30476;53.468;9.826;2023-03-31T00:54:22;4.97;;;2.23;;
44165;SDS011;30476;53.468;9.826;2023-03-31T00:56:50;5.77;;;2.17;;
44165;SDS011;30476;53.468;9.826;2023-03-31T00:59:24;9.70;;;2.40;;
44165;SDS011;30476;53.468;9.826;2023-03-31T01:01:52;6.63;;;2.40;;
44165;SDS011;30476;53.468;9.826;2023-03-31T01:04:19;9.77;;;2.20;;
44165;SDS011;30476;53.468;9.826;2023-03-31T01:06:54;7.13;;;2.40;;
44165;SDS011;30476;53.468;9.826;2023-03-31T01:09:44;8.97;;;2.03;;
44165;SDS011;30476;53.468;9.826;2023-03-31T01:12:11;5.40;;;1.80;;
44165;SDS011;30476;53.468;9.826;2023-03-31T01:14:41;6.70;;;2.13;;
44165;SDS011;30476;53.468;9.826;2023-03-31T01:17:06;7.80;;;3.20;;
44165;SDS011;30476;53.468;9.826;2023-03-31T01:19:47;13.33;;;2.00;;
44165;SDS011;30476;53.468;9.826;2023-03-31T01:25:22;5.60;;;1.93;;
44165;SDS011;30476;53.468;9.826;2023-03-31T01:28:36;8.10;;;2.43;;
44165;SDS011;30476;53.468;9.826;2023-03-31T01:31:56;6.10;;;2.40;;
44165;SDS011;30476;53.468;9.826;2023-03-31T01:45:35;9.30;;;2.60;;
44165;SDS011;30476;53.468;9.826;2023-03-31T01:48:20;8.23;;;3.10;;
44165;SDS011;30476;53.468;9.826;2023-03-31T01:50:57;7.83;;;2.70;;
44165;SDS011;30476;53.468;9.826;2023-03-31T01:53:32;6.00;;;3.20;;
44165;SDS011;30476;53.468;9.826;2023-03-31T01:58:55;6.80;;;3.00;;
44165;SDS011;30476;53.468;9.826;2023-03-31T02:04:21;7.90;;;4.37;;
44165;SDS011;30476;53.468;9.826;2023-03-31T02:06:51;8.87;;;3.50;;
44165;SDS011;30476;53.468;9.826;2023-03-31T02:09:22;6.57;;;3.50;;
44165;SDS011;30476;53.468;9.826;2023-03-31T02:11:53;9.00;;;3.67;;
44165;SDS011;30476;53.468;9.826;2023-03-31T02:14:22;11.00;;;4.20;;
44165;SDS011;30476;53.468;9.826;2023-03-31T02:16:52;7.67;;;3.83;;
44165;SDS011;30476;53.468;9.826;2023-03-31T02:19:23;10.17;;;3.90;;
44165;SDS011;30476;53.468;9.826;2023-03-31T02:21:53;8.43;;;3.50;;
44165;SDS011;30476;53.468;9.826;2023-03-31T02:24:20;7.33;;;3.87;;
44165;SDS011;30476;53.468;9.826;2023-03-31T02:26:51;11.13;;;4.03;;
44165;SDS011;30476;53.468;9.826;2023-03-31T02:29:20;6.53;;;3.90;;
44165;SDS011;30476;53.468;9.826;2023-03-31T02:31:48;8.70;;;3.67;;
44165;SDS011;30476;53.468;9.826;2023-03-31T02:34:28;6.27;;;3.80;;
44165;SDS011;30476;53.468;9.826;2023-03-31T02:36:54;8.47;;;3.63;;
44165;SDS011;30476;53.468;9.826;2023-03-31T02:39:21;11.20;;;4.07;;
44165;SDS011;30476;53.468;9.826;2023-03-31T02:41:51;5.17;;;4.17;;
44165;SDS011;30476;53.468;9.826;2023-03-31T02:44:18;5.40;;;4.40;;
44165;SDS011;30476;53.468;9.826;2023-03-31T02:46:44;6.80;;;4.27;;
44165;SDS011;30476;53.468;9.826;2023-03-31T02:49:11;10.10;;;3.67;;
44165;SDS011;30476;53.468;9.826;2023-03-31T02:51:43;8.00;;;3.73;;
44165;SDS011;30476;53.468;9.826;2023-03-31T02:57:38;5.50;;;3.50;;
44165;SDS011;30476;53.468;9.826;2023-03-31T03:03:21;7.80;;;4.67;;
44165;SDS011;30476;53.468;9.826;2023-03-31T03:06:16;7.60;;;4.03;;
44165;SDS011;30476;53.468;9.826;2023-03-31T03:11:32;6.30;;;3.33;;
44165;SDS011;30476;53.468;9.826;2023-03-31T03:17:14;6.80;;;3.33;;
44165;SDS011;30476;53.468;9.826;2023-03-31T03:19:51;8.43;;;3.53;;
44165;SDS011;30476;53.468;9.826;2023-03-31T03:22:19;7.93;;;4.90;;
44165;SDS011;30476;53.468;9.826;2023-03-31T03:24:45;6.67;;;3.20;;
44165;SDS011;30476;53.468;9.826;2023-03-31T03:27:11;6.60;;;3.90;;
44165;SDS011;30476;53.468;9.826;2023-03-31T03:29:37;5.97;;;3.60;;
44165;SDS011;30476;53.468;9.826;2023-03-31T03:32:03;9.20;;;3.80;;
44165;SDS011;30476;53.468;9.826;2023-03-31T03:34:29;10.67;;;3.50;;
44165;SDS011;30476;53.468;9.826;2023-03-31T03:36:55;7.77;;;4.50;;
44165;SDS011;30476;53.468;9.826;2023-03-31T03:39:20;9.77;;;4.07;;
44165;SDS011;30476;53.468;9.826;2023-03-31T03:41:46;8.53;;;5.93;;
44165;SDS011;30476;53.468;9.826;2023-03-31T03:44:12;10.20;;;4.27;;
44165;SDS011;30476;53.468;9.826;2023-03-31T03:46:38;6.23;;;3.50;;
44165;SDS011;30476;53.468;9.826;2023-03-31T03:49:03;11.50;;;4.20;;
44165;SDS011;30476;53.468;9.826;2023-03-31T03:51:29;6.10;;;3.63;;
44165;SDS011;30476;53.468;9.826;2023-03-31T03:53:55;12.10;;;4.70;;
44165;SDS011;30476;53.468;9.826;2023-03-31T03:56:21;6.93;;;4.40;;
44165;SDS011;30476;53.468;9.826;2023-03-31T03:58:46;7.40;;;4.50;;
44165;SDS011;30476;53.468;9.826;2023-03-31T04:01:12;9.40;;;3.87;;
44165;SDS011;30476;53.468;9.826;2023-03-31T04:03:38;13.47;;;5.00;;
44165;SDS011;30476;53.468;9.826;2023-03-31T04:06:04;10.97;;;5.67;;
44165;SDS011;30476;53.468;9.826;2023-03-31T04:08:30;7.43;;;4.53;;
44165;SDS011;30476;53.468;9.826;2023-03-31T04:10:56;9.67;;;5.20;;
44165;SDS011;30476;53.468;9.826;2023-03-31T04:13:22;16.00;;;6.30;;
44165;SDS011;30476;53.468;9.826;2023-03-31T04:15:47;10.77;;;5.40;;
44165;SDS011;30476;53.468;9.826;2023-03-31T04:18:13;14.90;;;7.37;;
44165;SDS011;30476;53.468;9.826;2023-03-31T04:20:53;16.23;;;6.30;;
44165;SDS011;30476;53.468;9.826;2023-03-31T04:23:32;14.57;;;5.83;;
44165;SDS011;30476;53.468;9.826;2023-03-31T04:25:58;13.33;;;7.33;;
44165;SDS011;30476;53.468;9.826;2023-03-31T04:28:25;12.00;;;7.60;;
44165;SDS011;30476;53.468;9.826;2023-03-31T04:30:51;18.17;;;8.33;;
44165;SDS011;30476;53.468;9.826;2023-03-31T04:33:19;11.47;;;6.40;;
44165;SDS011;30476;53.468;9.826;2023-03-31T04:35:45;14.67;;;8.80;;
44165;SDS011;30476;53.468;9.826;2023-03-31T04:38:17;15.37;;;7.40;;
44165;SDS011;30476;53.468;9.826;2023-03-31T04:40:46;15.93;;;7.00;;
44165;SDS011;30476;53.468;9.826;2023-03-31T04:43:13;8.50;;;6.60;;
44165;SDS011;30476;53.468;9.826;2023-03-31T04:45:40;9.50;;;6.93;;
44165;SDS011;30476;53.468;9.826;2023-03-31T04:48:07;12.53;;;7.00;;
44165;SDS011;30476;53.468;9.826;2023-03-31T04:50:33;9.67;;;6.07;;
44165;SDS011;30476;53.468;9.826;2023-03-31T04:52:59;13.00;;;7.43;;
44165;SDS011;30476;53.468;9.826;2023-03-31T04:55:26;15.37;;;7.60;;
44165;SDS011;30476;53.468;9.826;2023-03-31T04:57:52;9.43;;;6.67;;
44165;SDS011;30476;53.468;9.826;2023-03-31T05:00:18;13.80;;;6.63;;
44165;SDS011;30476;53.468;9.826;2023-03-31T05:02:44;12.20;;;6.97;;
44165;SDS011;30476;53.468;9.826;2023-03-31T05:05:10;12.83;;;6.20;;
44165;SDS011;30476;53.468;9.826;2023-03-31T05:07:36;10.47;;;6.30;;
44165;SDS011;30476;53.468;9.826;2023-03-31T05:10:03;9.20;;;5.73;;
44165;SDS011;30476;53.468;9.826;2023-03-31T05:12:32;8.60;;;5.53;;
44165;SDS011;30476;53.468;9.826;2023-03-31T05:15:02;9.43;;;5.40;;
44165;SDS011;30476;53.468;9.826;2023-03-31T05:17:31;9.87;;;6.07;;
44165;SDS011;30476;53.468;9.826;2023-03-31T05:19:58;10.50;;;6.20;;
44165;SDS011;30476;53.468;9.826;2023-03-31T05:22:25;8.80;;;6.27;;
44165;SDS011;30476;53.468;9.826;2023-03-31T05:24:51;10.43;;;5.73;;
44165;SDS011;30476;53.468;9.826;2023-03-31T05:27:17;10.63;;;7.40;;
44165;SDS011;30476;53.468;9.826;2023-03-31T05:29:45;11.50;;;5.90;;
44165;SDS011;30476;53.468;9.826;2023-03-31T05:32:10;9.43;;;5.03;;
44165;SDS011;30476;53.468;9.826;2023-03-31T05:34:36;11.60;;;5.67;;
44165;SDS011;30476;53.468;9.826;2023-03-31T05:37:02;14.23;;;6.43;;
44165;SDS011;30476;53.468;9.826;2023-03-31T05:39:28;11.47;;;6.10;;
44165;SDS011;30476;53.468;9.826;2023-03-31T05:41:57;8.17;;;5.37;;
44165;SDS011;30476;53.468;9.826;2023-03-31T05:44:24;12.00;;;5.57;;
44165;SDS011;30476;53.468;9.826;2023-03-31T05:46:52;7.83;;;5.30;;
44165;SDS011;30476;53.468;9.826;2023-03-31T05:49:18;10.80;;;4.93;;
44165;SDS011;30476;53.468;9.826;2023-03-31T05:51:44;9.23;;;5.33;;
44165;SDS011;30476;53.468;9.826;2023-03-31T05:54:09;9.53;;;5.10;;
44165;SDS011;30476;53.468;9.826;2023-03-31T05:56:35;10.23;;;5.17;;
44165;SDS011;30476;53.468;9.826;2023-03-31T05:59:01;13.00;;;5.60;;
44165;SDS011;30476;53.468;9.826;2023-03-31T06:01:27;10.50;;;5.70;;
44165;SDS011;30476;53.468;9.826;2023-03-31T06:03:54;10.17;;;5.70;;
44165;SDS011;30476;53.468;9.826;2023-03-31T06:06:20;9.53;;;5.50;;
44165;SDS011;30476;53.468;9.826;2023-03-31T06:08:47;7.33;;;4.93;;
44165;SDS011;30476;53.468;9.826;2023-03-31T06:11:14;11.43;;;5.57;;
44165;SDS011;30476;53.468;9.826;2023-03-31T06:13:45;13.50;;;7.60;;
44165;SDS011;30476;53.468;9.826;2023-03-31T06:16:12;8.13;;;6.40;;
44165;SDS011;30476;53.468;9.826;2023-03-31T06:18:39;11.97;;;5.83;;
44165;SDS011;30476;53.468;9.826;2023-03-31T06:21:05;11.87;;;6.40;;
44165;SDS011;30476;53.468;9.826;2023-03-31T06:23:32;11.90;;;5.37;;
44165;SDS011;30476;53.468;9.826;2023-03-31T06:26:02;10.37;;;5.57;;
44165;SDS011;30476;53.468;9.826;2023-03-31T06:28:31;12.77;;;5.33;;
44165;SDS011;30476;53.468;9.826;2023-03-31T06:31:05;13.80;;;6.00;;
44165;SDS011;30476;53.468;9.826;2023-03-31T06:33:33;9.40;;;5.23;;
44165;SDS011;30476;53.468;9.826;2023-03-31T06:35:59;8.57;;;5.27;;
44165;SDS011;30476;53.468;9.826;2023-03-31T06:38:28;8.53;;;4.70;;
44165;SDS011;30476;53.468;9.826;2023-03-31T06:40:54;9.73;;;5.63;;
44165;SDS011;30476;53.468;9.826;2023-03-31T06:43:20;11.40;;;5.50;;
44165;SDS011;30476;53.468;9.826;2023-03-31T06:45:46;15.27;;;6.10;;
44165;SDS011;30476;53.468;9.826;2023-03-31T06:48:12;7.53;;;5.73;;
44165;SDS011;30476;53.468;9.826;2023-03-31T06:50:38;10.50;;;5.37;;
44165;SDS011;30476;53.468;9.826;2023-03-31T06:53:06;7.20;;;4.93;;
44165;SDS011;30476;53.468;9.826;2023-03-31T06:55:35;7.77;;;5.90;;
44165;SDS011;30476;53.468;9.826;2023-03-31T06:58:02;7.93;;;5.83;;
44165;SDS011;30476;53.468;9.826;2023-03-31T07:00:29;8.77;;;4.60;;
44165;SDS011;30476;53.468;9.826;2023-03-31T07:02:56;11.37;;;4.50;;
44165;SDS011;30476;53.468;9.826;2023-03-31T07:05:22;7.73;;;4.90;;
44165;SDS011;30476;53.468;9.826;2023-03-31T07:07:54;6.40;;;4.40;;
44165;SDS011;30476;53.468;9.826;2023-03-31T07:10:21;7.20;;;4.57;;
44165;SDS011;30476;53.468;9.826;2023-03-31T07:12:48;10.50;;;4.40;;
44165;SDS011;30476;53.468;9.826;2023-03-31T07:15:14;11.07;;;4.40;;
44165;SDS011;30476;53.468;9.826;2023-03-31T07:17:40;6.47;;;4.80;;
44165;SDS011;30476;53.468;9.826;2023-03-31T07:20:07;10.30;;;4.53;;
44165;SDS011;30476;53.468;9.826;2023-03-31T07:22:37;8.43;;;3.57;;
44165;SDS011;30476;53.468;9.826;2023-03-31T07:25:06;7.60;;;3.97;;
44165;SDS011;30476;53.468;9.826;2023-03-31T07:27:33;6.93;;;3.93;;
44165;SDS011;30476;53.468;9.826;2023-03-31T07:29:58;6.60;;;3.70;;
44165;SDS011;30476;53.468;9.826;2023-03-31T07:32:24;5.70;;;3.80;;
44165;SDS011;30476;53.468;9.826;2023-03-31T07:34:50;6.40;;;3.53;;
44165;SDS011;30476;53.468;9.826;2023-03-31T07:37:16;5.00;;;3.30;;
44165;SDS011;30476;53.468;9.826;2023-03-31T07:39:41;9.03;;;3.83;;
44165;SDS011;30476;53.468;9.826;2023-03-31T07:42:07;3.83;;;3.23;;
44165;SDS011;30476;53.468;9.826;2023-03-31T07:44:33;6.03;;;3.53;;
44165;SDS011;30476;53.468;9.826;2023-03-31T07:47:00;6.73;;;4.20;;
44165;SDS011;30476;53.468;9.826;2023-03-31T07:49:29;7.97;;;3.50;;
44165;SDS011;30476;53.468;9.826;2023-03-31T07:51:55;5.20;;;3.00;;
44165;SDS011;30476;53.468;9.826;2023-03-31T07:54:21;6.37;;;3.03;;
44165;SDS011;30476;53.468;9.826;2023-03-31T07:56:47;3.33;;;3.00;;
44165;SDS011;30476;53.468;9.826;2023-03-31T07:59:13;5.67;;;3.10;;
44165;SDS011;30476;53.468;9.826;2023-03-31T08:01:38;7.27;;;3.40;;
44165;SDS011;30476;53.468;9.826;2023-03-31T08:04:04;5.97;;;3.73;;
44165;SDS011;30476;53.468;9.826;2023-03-31T08:06:30;3.73;;;3.20;;
44165;SDS011;30476;53.468;9.826;2023-03-31T08:08:56;7.07;;;3.87;;
44165;SDS011;30476;53.468;9.826;2023-03-31T08:11:23;4.47;;;3.50;;
44165;SDS011;30476;53.468;9.826;2023-03-31T08:13:50;3.67;;;2.67;;
44165;SDS011;30476;53.468;9.826;2023-03-31T08:16:16;5.10;;;2.80;;
44165;SDS011;30476;53.468;9.826;2023-03-31T08:18:42;4.90;;;3.93;;
44165;SDS011;30476;53.468;9.826;2023-03-31T08:21:08;6.37;;;3.53;;
44165;SDS011;30476;53.468;9.826;2023-03-31T08:23:34;5.53;;;3.40;;
44165;SDS011;30476;53.468;9.826;2023-03-31T08:26:11;5.90;;;2.93;;
44165;SDS011;30476;53.468;9.826;2023-03-31T08:28:37;3.70;;;3.00;;
44165;SDS011;30476;53.468;9.826;2023-03-31T08:31:06;7.53;;;3.30;;
44165;SDS011;30476;53.468;9.826;2023-03-31T08:33:33;4.60;;;2.90;;
44165;SDS011;30476;53.468;9.826;2023-03-31T08:36:06;6.13;;;3.10;;
44165;SDS011;30476;53.468;9.826;2023-03-31T08:38:43;5.50;;;2.60;;
44165;SDS011;30476;53.468;9.826;2023-03-31T08:41:18;4.67;;;2.27;;
44165;SDS011;30476;53.468;9.826;2023-03-31T08:44:16;2.13;;;1.93;;
44165;SDS011;30476;53.468;9.826;2023-03-31T08:46:58;2.70;;;2.10;;
44165;SDS011;30476;53.468;9.826;2023-03-31T08:49:26;2.50;;;2.30;;
44165;SDS011;30476;53.468;9.826;2023-03-31T08:51:56;2.80;;;2.53;;
44165;SDS011;30476;53.468;9.826;2023-03-31T08:54:33;2.37;;;1.80;;
44165;SDS011;30476;53.468;9.826;2023-03-31T08:57:02;5.07;;;1.73;;
44165;SDS011;30476;53.468;9.826;2023-03-31T08:59:36;3.07;;;1.90;;
44165;SDS011;30476;53.468;9.826;2023-03-31T09:02:15;4.20;;;2.10;;
44165;SDS011;30476;53.468;9.826;2023-03-31T09:08:02;4.03;;;1.73;;
44165;SDS011;30476;53.468;9.826;2023-03-31T09:10:55;2.17;;;1.70;;
44165;SDS011;30476;53.468;9.826;2023-03-31T09:13:39;2.57;;;2.10;;
44165;SDS011;30476;53.468;9.826;2023-03-31T09:16:17;4.50;;;1.93;;
44165;SDS011;30476;53.468;9.826;2023-03-31T09:19:07;2.07;;;1.93;;
44165;SDS011;30476;53.468;9.826;2023-03-31T09:21:40;3.03;;;1.70;;
44165;SDS011;30476;53.468;9.826;2023-03-31T09:24:14;5.87;;;2.33;;
44165;SDS011;30476;53.468;9.826;2023-03-31T09:26:45;2.33;;;2.10;;
44165;SDS011;30476;53.468;9.826;2023-03-31T09:29:23;3.47;;;2.47;;
44165;SDS011;30476;53.468;9.826;2023-03-31T09:32:01;3.00;;;1.93;;
44165;SDS011;30476;53.468;9.826;2023-03-31T09:34:52;5.10;;;1.90;;
44165;SDS011;30476;53.468;9.826;2023-03-31T09:37:26;3.07;;;2.30;;
44165;SDS011;30476;53.468;9.826;2023-03-31T09:39:55;4.40;;;3.00;;
44165;SDS011;30476;53.468;9.826;2023-03-31T09:42:24;3.30;;;3.00;;
44165;SDS011;30476;53.468;9.826;2023-03-31T09:44:50;3.93;;;2.90;;
44165;SDS011;30476;53.468;9.826;2023-03-31T09:47:18;3.20;;;3.00;;
44165;SDS011;30476;53.468;9.826;2023-03-31T09:50:04;3.53;;;3.03;;
44165;SDS011;30476;53.468;9.826;2023-03-31T09:52:32;3.40;;;2.40;;
44165;SDS011;30476;53.468;9.826;2023-03-31T09:55:02;4.27;;;2.87;;
44165;SDS011;30476;53.468;9.826;2023-03-31T09:57:39;3.27;;;2.97;;
44165;SDS011;30476;53.468;9.826;2023-03-31T10:00:13;4.10;;;2.43;;
44165;SDS011;30476;53.468;9.826;2023-03-31T10:02:47;2.63;;;2.40;;
44165;SDS011;30476;53.468;9.826;2023-03-31T10:08:09;3.20;;;3.03;;
44165;SDS011;30476;53.468;9.826;2023-03-31T10:10:43;5.33;;;3.30;;
44165;SDS011;30476;53.468;9.826;2023-03-31T10:13:58;3.40;;;3.10;;
44165;SDS011;30476;53.468;9.826;2023-03-31T10:16:20;4.23;;;2.67;;
44165;SDS011;30476;53.468;9.826;2023-03-31T10:18:51;3.53;;;2.60;;
44165;SDS011;30476;53.468;9.826;2023-03-31T10:21:22;2.83;;;2.63;;
44165;SDS011;30476;53.468;9.826;2023-03-31T10:23:51;2.30;;;2.10;;
44165;SDS011;30476;53.468;9.826;2023-03-31T10:26:23;2.80;;;2.60;;
44165;SDS011;30476;53.468;9.826;2023-03-31T10:28:51;4.53;;;2.60;;
44165;SDS011;30476;53.468;9.826;2023-03-31T10:31:19;4.47;;;2.20;;
44165;SDS011;30476;53.468;9.826;2023-03-31T10:33:49;5.17;;;2.30;;
44165;SDS011;30476;53.468;9.826;2023-03-31T10:36:21;2.10;;;1.90;;
44165;SDS011;30476;53.468;9.826;2023-03-31T10:38:51;2.40;;;2.00;;
44165;SDS011;30476;53.468;9.826;2023-03-31T10:41:22;3.47;;;1.90;;
44165;SDS011;30476;53.468;9.826;2023-03-31T10:43:58;2.93;;;2.00;;
44165;SDS011;30476;53.468;9.826;2023-03-31T10:49:14;3.17;;;1.77;;
44165;SDS011;30476;53.468;9.826;2023-03-31T10:51:50;2.70;;;1.90;;
44165;SDS011;30476;53.468;9.826;2023-03-31T10:54:17;2.00;;;1.80;;
44165;SDS011;30476;53.468;9.826;2023-03-31T10:56:45;2.30;;;1.80;;
44165;SDS011;30476;53.468;9.826;2023-03-31T11:05:29;5.10;;;1.90;;
44165;SDS011;30476;53.468;9.826;2023-03-31T11:08:16;2.90;;;2.13;;
44165;SDS011;30476;53.468;9.826;2023-03-31T11:16:09;3.00;;;1.20;;
44165;SDS011;30476;53.468;9.826;2023-03-31T11:26:48;1.33;;;1.03;;
44165;SDS011;30476;53.468;9.826;2023-03-31T11:29:27;2.93;;;1.00;;
44165;SDS011;30476;53.468;9.826;2023-03-31T11:32:15;1.37;;;1.27;;
44165;SDS011;30476;53.468;9.826;2023-03-31T11:35:25;2.30;;;1.20;;
44165;SDS011;30476;53.468;9.826;2023-03-31T11:41:30;3.83;;;1.87;;
44165;SDS011;30476;53.468;9.826;2023-03-31T11:44:04;1.40;;;0.90;;
44165;SDS011;30476;53.468;9.826;2023-03-31T11:46:40;1.43;;;1.17;;
44165;SDS011;30476;53.468;9.826;2023-03-31T11:49:27;3.30;;;1.20;;
44165;SDS011;30476;53.468;9.826;2023-03-31T11:52:20;1.30;;;1.20;;
44165;SDS011;30476;53.468;9.826;2023-03-31T11:55:27;4.37;;;2.47;;
44165;SDS011;30476;53.468;9.826;2023-03-31T11:57:49;1.40;;;1.30;;
44165;SDS011;30476;53.468;9.826;2023-03-31T12:00:42;1.87;;;1.77;;
44165;SDS011;30476;53.468;9.826;2023-03-31T12:03:13;2.70;;;1.57;;
44165;SDS011;30476;53.468;9.826;2023-03-31T12:05:47;1.70;;;1.60;;
44165;SDS011;30476;53.468;9.826;2023-03-31T12:08:34;1.77;;;1.67;;
44165;SDS011;30476;53.468;9.826;2023-03-31T12:11:03;1.60;;;1.50;;
44165;SDS011;30476;53.468;9.826;2023-03-31T12:13:41;3.17;;;1.90;;
44165;SDS011;30476;53.468;9.826;2023-03-31T12:18:56;2.90;;;1.97;;
44165;SDS011;30476;53.468;9.826;2023-03-31T12:21:43;2.57;;;1.93;;
44165;SDS011;30476;53.468;9.826;2023-03-31T12:24:14;2.57;;;2.40;;
44165;SDS011;30476;53.468;9.826;2023-03-31T12:26:47;2.13;;;1.90;;
44165;SDS011;30476;53.468;9.826;2023-03-31T12:29:38;2.43;;;2.23;;
44165;SDS011;30476;53.468;9.826;2023-03-31T12:32:13;4.77;;;2.30;;
44165;SDS011;30476;53.468;9.826;2023-03-31T12:34:47;4.20;;;1.97;;
44165;SDS011;30476;53.468;9.826;2023-03-31T12:37:28;4.43;;;2.87;;
44165;SDS011;30476;53.468;9.826;2023-03-31T12:57:29;5.03;;;2.50;;
44165;SDS011;30476;53.468;9.826;2023-03-31T13:02:38;3.40;;;2.87;;
44165;SDS011;30476;53.468;9.826;2023-03-31T13:08:02;2.97;;;2.20;;
44165;SDS011;30476;53.468;9.826;2023-03-31T13:10:53;2.77;;;2.57;;
44165;SDS011;30476;53.468;9.826;2023-03-31T13:13:22;3.13;;;2.50;;
44165;SDS011;30476;53.468;9.826;2023-03-31T13:15:51;3.93;;;2.20;;
44165;SDS011;30476;53.468;9.826;2023-03-31T13:18:22;2.50;;;2.30;;
44165;SDS011;30476;53.468;9.826;2023-03-31T13:20:58;3.43;;;2.37;;
44165;SDS011;30476;53.468;9.826;2023-03-31T13:23:26;2.73;;;2.40;;
44165;SDS011;30476;53.468;9.826;2023-03-31T13:25:58;2.83;;;2.60;;
44165;SDS011;30476;53.468;9.826;2023-03-31T13:28:26;2.40;;;2.20;;
44165;SDS011;30476;53.468;9.826;2023-03-31T13:31:04;3.30;;;3.10;;
44165;SDS011;30476;53.468;9.826;2023-03-31T13:33:35;2.40;;;2.30;;
44165;SDS011;30476;53.468;9.826;2023-03-31T13:41:38;2.10;;;2.00;;
44165;SDS011;30476;53.468;9.826;2023-03-31T13:44:26;2.10;;;2.00;;
44165;SDS011;30476;53.468;9.826;2023-03-31T13:53:01;2.30;;;2.20;;
44165;SDS011;30476;53.468;9.826;2023-03-31T14:07:21;3.07;;;2.30;;
44165;SDS011;30476;53.468;9.826;2023-03-31T14:09:56;2.10;;;2.00;;
44165;SDS011;30476;53.468;9.826;2023-03-31T14:14:52;2.40;;;2.10;;
44165;SDS011;30476;53.468;9.826;2023-03-31T14:17:18;2.43;;;2.23;;
44165;SDS011;30476;53.468;9.826;2023-03-31T14:19:52;2.47;;;2.27;;
44165;SDS011;30476;53.468;9.826;2023-03-31T14:22:43;1.90;;;1.70;;
44165;SDS011;30476;53.468;9.826;2023-03-31T14:30:53;1.40;;;1.30;;
44165;SDS011;30476;53.468;9.826;2023-03-31T14:33:41;1.60;;;1.50;;
44165;SDS011;30476;53.468;9.826;2023-03-31T14:39:05;2.13;;;2.03;;
44165;SDS011;30476;53.468;9.826;2023-03-31T14:41:34;1.30;;;1.20;;
44165;SDS011;30476;53.468;9.826;2023-03-31T14:44:03;1.40;;;1.30;;
44165;SDS011;30476;53.468;9.826;2023-03-31T14:46:31;1.43;;;1.10;;
44165;SDS011;30476;53.468;9.826;2023-03-31T14:49:06;1.37;;;1.27;;
44165;SDS011;30476;53.468;9.826;2023-03-31T14:51:52;1.30;;;1.17;;
44165;SDS011;30476;53.468;9.826;2023-03-31T14:54:19;3.17;;;1.20;;
44165;SDS011;30476;53.468;9.826;2023-03-31T14:56:52;1.00;;;1.00;;
44165;SDS011;30476;53.468;9.826;2023-03-31T14:59:23;1.10;;;1.00;;
44165;SDS011;30476;53.468;9.826;2023-03-31T15:01:51;0.80;;;0.80;;
44165;SDS011;30476;53.468;9.826;2023-03-31T15:04:19;2.00;;;0.90;;
44165;SDS011;30476;53.468;9.826;2023-03-31T15:06:48;0.90;;;0.80;;
44165;SDS011;30476;53.468;9.826;2023-03-31T15:09:26;0.83;;;0.80;;
44165;SDS011;30476;53.468;9.826;2023-03-31T15:11:55;0.97;;;0.80;;
44165;SDS011;30476;53.468;9.826;2023-03-31T15:14:27;1.10;;;0.90;;
44165;SDS011;30476;53.468;9.826;2023-03-31T15:16:58;1.30;;;0.80;;
44165;SDS011;30476;53.468;9.826;2023-03-31T15:19:32;0.80;;;0.80;;
44165;SDS011;30476;53.468;9.826;2023-03-31T15:22:10;1.90;;;1.10;;
44165;SDS011;30476;53.468;9.826;2023-03-31T15:24:40;0.80;;;0.80;;
44165;SDS011;30476;53.468;9.826;2023-03-31T15:27:14;1.43;;;0.90;;
44165;SDS011;30476;53.468;9.826;2023-03-31T15:30:07;1.00;;;0.90;;
44165;SDS011;30476;53.468;9.826;2023-03-31T15:32:38;1.33;;;1.30;;
44165;SDS011;30476;53.468;9.826;2023-03-31T15:35:05;2.03;;;1.00;;
44165;SDS011;30476;53.468;9.826;2023-03-31T15:37:41;1.90;;;1.00;;
44165;SDS011;30476;53.468;9.826;2023-03-31T15:40:16;1.50;;;1.20;;
44165;SDS011;30476;53.468;9.826;2023-03-31T15:43:15;1.90;;;1.10;;
44165;SDS011;30476;53.468;9.826;2023-03-31T15:45:55;1.20;;;1.03;;
44165;SDS011;30476;53.468;9.826;2023-03-31T15:50:59;1.33;;;1.23;;
44165;SDS011;30476;53.468;9.826;2023-03-31T15:55:55;2.17;;;2.03;;
44165;SDS011;30476;53.468;9.826;2023-03-31T15:58:44;1.10;;;1.00;;
44165;SDS011;30476;53.468;9.826;2023-03-31T16:01:11;1.47;;;1.00;;
44165;SDS011;30476;53.468;9.826;2023-03-31T16:03:40;1.33;;;1.20;;
44165;SDS011;30476;53.468;9.826;2023-03-31T16:06:08;1.53;;;1.40;;
44165;SDS011;30476;53.468;9.826;2023-03-31T16:08:41;1.20;;;1.10;;
44165;SDS011;30476;53.468;9.826;2023-03-31T16:11:12;1.77;;;1.37;;
44165;SDS011;30476;53.468;9.826;2023-03-31T16:13:44;1.10;;;1.10;;
44165;SDS011;30476;53.468;9.826;2023-03-31T16:16:14;1.40;;;1.30;;
44165;SDS011;30476;53.468;9.826;2023-03-31T16:18:49;2.23;;;1.20;;
44165;SDS011;30476;53.468;9.826;2023-03-31T16:21:22;1.20;;;1.20;;
44165;SDS011;30476;53.468;9.826;2023-03-31T16:23:51;1.30;;;1.20;;
44165;SDS011;30476;53.468;9.826;2023-03-31T16:26:22;1.40;;;1.10;;
44165;SDS011;30476;53.468;9.826;2023-03-31T16:28:52;2.10;;;1.27;;
44165;SDS011;30476;53.468;9.826;2023-03-31T16:31:32;1.40;;;1.30;;
44165;SDS011;30476;53.468;9.826;2023-03-31T16:34:05;1.30;;;1.20;;
44165;SDS011;30476;53.468;9.826;2023-03-31T16:36:32;1.40;;;1.30;;
44165;SDS011;30476;53.468;9.826;2023-03-31T16:38:58;1.23;;;1.13;;
44165;SDS011;30476;53.468;9.826;2023-03-31T16:41:27;1.20;;;1.10;;
44165;SDS011;30476;53.468;9.826;2023-03-31T16:43:53;1.50;;;1.10;;
44165;SDS011;30476;53.468;9.826;2023-03-31T16:46:20;3.40;;;1.60;;
44165;SDS011;30476;53.468;9.826;2023-03-31T16:48:47;1.37;;;1.27;;
44165;SDS011;30476;53.468;9.826;2023-03-31T16:51:12;1.30;;;1.20;;
44165;SDS011;30476;53.468;9.826;2023-03-31T16:53:39;1.30;;;1.20;;
44165;SDS011;30476;53.468;9.826;2023-03-31T16:56:05;1.23;;;1.13;;
44165;SDS011;30476;53.468;9.826;2023-03-31T16:58:32;3.60;;;1.17;;
44165;SDS011;30476;53.468;9.826;2023-03-31T17:00:58;1.37;;;1.20;;
44165;SDS011;30476;53.468;9.826;2023-03-31T17:03:25;1.40;;;1.30;;
44165;SDS011;30476;53.468;9.826;2023-03-31T17:05:52;1.20;;;1.10;;
44165;SDS011;30476;53.468;9.826;2023-03-31T17:08:21;1.20;;;1.10;;
44165;SDS011;30476;53.468;9.826;2023-03-31T17:10:52;1.33;;;1.10;;
44165;SDS011;30476;53.468;9.826;2023-03-31T17:13:48;1.30;;;1.20;;
44165;SDS011;30476;53.468;9.826;2023-03-31T17:16:14;1.53;;;1.43;;
44165;SDS011;30476;53.468;9.826;2023-03-31T17:18:42;1.70;;;1.60;;
44165;SDS011;30476;53.468;9.826;2023-03-31T17:21:09;1.57;;;1.00;;
44165;SDS011;30476;53.468;9.826;2023-03-31T17:23:36;1.17;;;1.07;;